West Alexander, Pennsylvania
Current Conditions -  °F | °C
As of 5:53 AM on Saturday 25 Oct 2014 (Local Time) from KHLG Reporting Station
Clear Clear  
Wind Chill: 43°   Ceiling: Unl
Heat Index: 46°   Visibility: 10mi
Dew Point: 39°   Wind: 6mph
Humidity: 76%   Direction: 180°S
Pressure: 29.97"   Gusts: NA
Location:  40.11°N, 80.51°W
Report Text: KHLG 250953Z AUTO 18005KT 10SM CLR 08/04 A2997 RMK AO2 SLP153 T00780039
Loading
Personal Weather Stations






























Interactive Weather Map
Tropical Storm Tracking
New forecast layout! Learn more

10-Day Weather Forecast

Advertisements
Track Severe Weather on mobile